Terminal Aerodrome Forecast
Issued by NWS

Home | Current Version | Previous Version | Text Only | Print | Product List | Glossary On
Versions: 1 2 3 4 5 6 7 8 9 10 11 12 13 14 15 16
000
FTUS43 KLSX 211500 AAB
TAFCPS
TAF AMD
KCPS 211526Z 2115/2212 23009KT P6SM VCSH OVC080
      TEMPO 2115/2117 5SM -SHRA
     FM211800 25008KT P6SM VCTS SCT060CB BKN120
      TEMPO 2120/2124 5SM -SHRA BKN050
     FM220400 29008KT P6SM SCT060 BKN100
     FM220600 33010KT P6SM SKC=

USA.gov is the U.S. government's official web portal to all federal, state and local government web resources and services.